Time;durP1;ratioP1;P1;durP2;ratioP2;P2;SDS_P1;SDS_P2;PMS_P1;PMS_P2;Temp;Humidity;BMP_temperature;BMP_pressure;BME280_temperature;BME280_humidity;BME280_pressure;Samples;Min_cycle;Max_cycle;Signal;HPM_P1;HPM_P2
2023/01/31 00:00:25;;;;;;;7.00;6.30;;;7.20;78.30;;;;;;4929073;28;20483;-74
2023/01/31 00:02:52;;;;;;;11.83;7.90;;;7.10;78.50;;;;;;4972555;28;20487;-74
2023/01/31 00:05:22;;;;;;;6.80;5.70;;;7.10;78.70;;;;;;4970181;28;20491;-73
2023/01/31 00:07:50;;;;;;;8.27;6.03;;;7.20;78.50;;;;;;4972715;28;20478;-74
2023/01/31 00:10:18;;;;;;;9.00;6.13;;;7.10;78.40;;;;;;4966585;28;20452;-72
2023/01/31 00:12:47;;;;;;;6.80;5.83;;;7.20;78.40;;;;;;4970499;28;20464;-72
2023/01/31 00:15:15;;;;;;;7.03;5.33;;;7.10;78.40;;;;;;4972342;28;20937;-74
2023/01/31 00:17:42;;;;;;;9.20;5.93;;;7.00;78.60;;;;;;4966716;28;20483;-74
2023/01/31 00:20:12;;;;;;;8.33;5.60;;;7.10;78.50;;;;;;4971844;28;20849;-74
2023/01/31 00:22:39;;;;;;;8.32;5.78;;;7.10;78.40;;;;;;4972124;28;20452;-74
2023/01/31 00:25:14;;;;;;;7.37;5.13;;;7.10;78.50;;;;;;4972266;28;20232;-74
2023/01/31 00:27:40;;;;;;;7.63;5.87;;;7.10;78.60;;;;;;4971505;28;20462;-75
2023/01/31 00:30:14;;;;;;;7.30;5.53;;;7.10;78.60;;;;;;4971718;28;20448;-74
2023/01/31 00:32:40;;;;;;;8.17;5.30;;;7.20;78.30;;;;;;4972162;28;20482;-74
2023/01/31 00:35:11;;;;;;;7.23;5.80;;;7.20;77.80;;;;;;4972332;28;20494;-74
2023/01/31 00:37:38;;;;;;;7.37;5.03;;;7.30;77.60;;;;;;4971853;28;20471;-74
2023/01/31 00:40:07;;;;;;;7.90;5.55;;;7.20;77.50;;;;;;4971457;28;20498;-74
2023/01/31 00:42:37;;;;;;;7.50;4.82;;;7.30;77.10;;;;;;4971140;28;20311;-73
2023/01/31 00:45:05;;;;;;;8.80;4.97;;;7.30;77.00;;;;;;4972482;28;20239;-73
2023/01/31 00:47:31;;;;;;;8.73;5.00;;;7.30;76.90;;;;;;4963546;28;20456;-73
2023/01/31 00:50:00;;;;;;;8.23;5.72;;;7.30;77.00;;;;;;4966724;28;20459;-74
2023/01/31 00:52:27;;;;;;;8.90;5.40;;;7.40;76.90;;;;;;4970411;28;20234;-73
2023/01/31 00:54:54;;;;;;;8.43;4.87;;;7.30;76.90;;;;;;4961371;28;20848;-74
2023/01/31 00:57:22;;;;;;;10.07;7.27;;;7.20;77.30;;;;;;4972645;28;20490;-74
2023/01/31 00:59:49;;;;;;;7.32;5.45;;;7.20;77.40;;;;;;4956476;28;20484;-72
2023/01/31 01:02:16;;;;;;;6.77;5.13;;;7.20;77.20;;;;;;4957430;28;20408;-73
2023/01/31 01:04:43;;;;;;;7.53;5.67;;;7.20;77.40;;;;;;4961118;28;20492;-73
2023/01/31 01:07:11;;;;;;;8.87;5.73;;;7.20;77.40;;;;;;4924137;29;20843;-74
2023/01/31 01:09:44;;;;;;;6.17;5.57;;;7.20;77.60;;;;;;4962860;28;20462;-74
2023/01/31 01:12:10;;;;;;;9.63;5.50;;;7.10;77.80;;;;;;4964252;28;20468;-72
2023/01/31 01:14:41;;;;;;;8.23;6.67;;;7.20;77.50;;;;;;4964343;28;20460;-74
2023/01/31 01:17:08;;;;;;;9.97;6.47;;;7.10;77.60;;;;;;4969023;28;20474;-73
2023/01/31 01:19:35;;;;;;;7.67;6.80;;;7.20;77.50;;;;;;4971541;28;20510;-74
2023/01/31 01:22:08;;;;;;;8.80;6.73;;;7.10;77.30;;;;;;4971510;28;20466;-74
2023/01/31 01:24:35;;;;;;;8.55;5.70;;;7.00;77.50;;;;;;4959877;28;20460;-74
2023/01/31 01:27:07;;;;;;;8.98;6.63;;;7.00;77.70;;;;;;4970565;28;20207;-74
2023/01/31 01:29:34;;;;;;;8.63;6.07;;;6.90;78.00;;;;;;4971252;28;20208;-73
2023/01/31 01:32:06;;;;;;;7.17;5.93;;;7.00;77.90;;;;;;4971402;28;20484;-73
2023/01/31 01:34:34;;;;;;;8.07;6.80;;;6.90;78.00;;;;;;4971388;28;20471;-73
2023/01/31 01:37:10;;;;;;;8.10;6.50;;;6.90;77.80;;;;;;4956356;28;20482;-73
2023/01/31 01:39:37;;;;;;;11.30;6.23;;;6.90;78.00;;;;;;4951665;28;20586;-73
2023/01/31 01:42:07;;;;;;;7.30;5.95;;;6.90;78.00;;;;;;4951926;28;20457;-72
2023/01/31 01:44:46;;;;;;;6.85;5.75;;;7.00;77.90;;;;;;4952446;28;20211;-74
2023/01/31 01:47:24;;;;;;;8.23;5.67;;;7.00;77.90;;;;;;4956319;28;20554;-73
2023/01/31 01:49:54;;;;;;;8.52;5.65;;;7.00;77.70;;;;;;4922353;28;20459;-74
2023/01/31 01:52:23;;;;;;;7.13;5.80;;;7.00;77.60;;;;;;4937137;28;20588;-74
2023/01/31 01:54:53;;;;;;;7.95;6.25;;;6.90;77.40;;;;;;4967493;28;20969;-73
2023/01/31 01:57:26;;;;;;;7.60;5.88;;;6.90;77.60;;;;;;4960956;28;20205;-74
2023/01/31 02:00:11;;;;;;;6.37;5.60;;;7.00;77.30;;;;;;4959018;28;20220;-73
2023/01/31 02:02:48;;;;;;;6.67;5.97;;;7.00;77.30;;;;;;4954992;28;20455;-74
2023/01/31 02:05:23;;;;;;;7.90;5.53;;;6.80;77.90;;;;;;4968020;28;20461;-73
2023/01/31 02:07:54;;;;;;;6.67;5.30;;;6.80;77.70;;;;;;4964400;28;20483;-73
2023/01/31 02:10:24;;;;;;;6.30;5.70;;;6.80;77.90;;;;;;4966481;28;20455;-74
2023/01/31 02:12:54;;;;;;;9.65;6.60;;;6.70;77.80;;;;;;4969636;28;20456;-74
2023/01/31 02:15:22;;;;;;;7.88;5.80;;;6.80;77.60;;;;;;4962837;28;20224;-74
2023/01/31 02:17:53;;;;;;;7.30;5.73;;;6.70;77.70;;;;;;4971254;28;20219;-73
2023/01/31 02:20:41;;;;;;;7.25;5.95;;;6.70;77.80;;;;;;4973351;28;20513;-73
2023/01/31 02:23:30;;;;;;;9.98;6.15;;;6.80;77.90;;;;;;4955634;28;20587;-73
2023/01/31 02:26:41;;;;;;;11.55;6.63;;;6.80;78.60;;;;;;4965331;28;20209;-75
2023/01/31 02:29:33;;;;;;;6.97;6.28;;;6.90;77.60;;;;;;4920297;28;20591;-72
2023/01/31 02:32:35;;;;;;;9.00;6.20;;;7.00;77.30;;;;;;4974032;28;20208;-73
2023/01/31 02:35:12;;;;;;;10.82;6.28;;;7.00;77.20;;;;;;4955573;28;20197;-74
2023/01/31 02:37:58;;;;;;;10.32;6.70;;;7.00;77.10;;;;;;4965091;28;20228;-73
2023/01/31 02:40:37;;;;;;;12.68;7.03;;;7.00;76.90;;;;;;4962708;28;20216;-74
2023/01/31 02:43:13;;;;;;;9.13;6.78;;;7.10;76.70;;;;;;4963410;28;20204;-73
2023/01/31 02:45:52;;;;;;;8.47;6.77;;;7.00;76.80;;;;;;4972308;28;20220;-73
2023/01/31 02:48:31;;;;;;;10.27;6.45;;;7.00;76.90;;;;;;4965053;28;20452;-74
2023/01/31 02:51:07;;;;;;;9.20;6.83;;;7.10;76.70;;;;;;4970558;28;20193;-73
2023/01/31 02:53:36;;;;;;;10.57;7.50;;;7.10;76.40;;;;;;4974015;28;20451;-72
2023/01/31 02:56:17;;;;;;;10.73;7.27;;;7.20;76.30;;;;;;4957851;28;20485;-74
2023/01/31 02:58:53;;;;;;;12.10;7.00;;;7.30;75.90;;;;;;4959105;28;20476;-73
2023/01/31 03:01:30;;;;;;;9.35;7.13;;;7.20;75.80;;;;;;4969127;28;20491;-73
2023/01/31 03:03:58;;;;;;;12.47;7.80;;;7.20;75.70;;;;;;4974757;28;20216;-72
2023/01/31 03:06:58;;;;;;;11.03;7.27;;;7.00;75.70;;;;;;4984350;28;20567;-74
2023/01/31 03:09:35;;;;;;;9.48;6.78;;;7.10;76.80;;;;;;4965251;28;20946;-73
2023/01/31 03:12:17;;;;;;;8.07;6.55;;;7.10;76.30;;;;;;4969668;28;20259;-74
2023/01/31 03:14:52;;;;;;;10.43;7.38;;;7.10;76.00;;;;;;4963359;28;20212;-74
2023/01/31 03:17:31;;;;;;;11.68;8.05;;;7.10;75.80;;;;;;4968739;28;20227;-73
2023/01/31 03:20:06;;;;;;;11.32;7.45;;;7.10;75.90;;;;;;4961442;28;20232;-74
2023/01/31 03:22:37;;;;;;;8.57;6.97;;;7.10;76.00;;;;;;4973153;28;20211;-73
2023/01/31 03:25:07;;;;;;;8.77;7.25;;;6.90;76.30;;;;;;4973637;28;20455;-74
2023/01/31 03:27:34;;;;;;;12.35;8.18;;;6.90;77.00;;;;;;4972748;28;20224;-73
2023/01/31 03:30:09;;;;;;;12.07;7.57;;;6.90;77.20;;;;;;4954008;28;20575;-74
2023/01/31 03:32:41;;;;;;;11.73;7.23;;;6.90;77.40;;;;;;4953622;29;20304;-74
2023/01/31 03:35:09;;;;;;;11.20;8.13;;;6.80;77.30;;;;;;4954034;29;20972;-73
2023/01/31 03:37:44;;;;;;;11.47;7.73;;;6.70;77.80;;;;;;4953707;28;20500;-72
2023/01/31 03:40:13;;;;;;;10.10;7.97;;;6.70;78.20;;;;;;4954028;29;20584;-73
2023/01/31 03:42:45;;;;;;;11.52;8.50;;;6.60;78.60;;;;;;4953643;29;20584;-74
2023/01/31 03:45:19;;;;;;;13.00;8.80;;;6.60;78.80;;;;;;4954019;29;20470;-73
2023/01/31 03:47:48;;;;;;;11.25;8.02;;;6.60;78.90;;;;;;4955717;28;20457;-73
2023/01/31 03:50:20;;;;;;;13.13;9.80;;;6.50;78.80;;;;;;4962698;28;20193;-72
2023/01/31 03:52:54;;;;;;;14.43;9.18;;;6.60;79.10;;;;;;4930911;28;20685;-73
2023/01/31 03:55:27;;;;;;;11.68;9.25;;;6.60;79.30;;;;;;4964546;28;20208;-73
2023/01/31 03:57:56;;;;;;;12.68;8.35;;;6.60;79.40;;;;;;4954882;28;20250;-73
2023/01/31 04:00:26;;;;;;;12.93;8.65;;;6.60;79.70;;;;;;4961179;28;20228;-73
2023/01/31 04:02:59;;;;;;;14.80;8.93;;;6.60;79.50;;;;;;4972480;28;20319;-73
2023/01/31 04:05:29;;;;;;;13.80;8.88;;;6.70;79.30;;;;;;4956788;28;20459;-74
2023/01/31 04:07:57;;;;;;;12.93;9.10;;;6.70;79.20;;;;;;4963602;28;20256;-73
2023/01/31 04:10:25;;;;;;;13.50;8.97;;;6.60;79.40;;;;;;4964624;28;20457;-73
2023/01/31 04:12:52;;;;;;;12.87;8.77;;;6.60;79.40;;;;;;4972590;28;20764;-74
2023/01/31 04:15:20;;;;;;;11.77;8.98;;;6.60;79.60;;;;;;4967482;28;20453;-74
2023/01/31 04:17:47;;;;;;;14.00;9.52;;;6.60;79.70;;;;;;4953165;28;20580;-74
2023/01/31 04:20:15;;;;;;;14.23;9.05;;;6.70;79.50;;;;;;4963378;28;20230;-74
2023/01/31 04:22:42;;;;;;;13.07;9.40;;;6.70;79.30;;;;;;4963152;28;20234;-74
2023/01/31 04:25:11;;;;;;;13.00;9.13;;;6.80;78.90;;;;;;4970036;28;20204;-73
2023/01/31 04:27:38;;;;;;;14.27;9.43;;;6.80;78.70;;;;;;4946484;29;20205;-73
2023/01/31 04:30:06;;;;;;;9.67;7.83;;;6.70;78.80;;;;;;4953406;28;20707;-72
2023/01/31 04:32:33;;;;;;;13.55;8.77;;;6.60;78.90;;;;;;4972286;28;20448;-75
2023/01/31 04:35:01;;;;;;;12.68;9.40;;;6.50;79.10;;;;;;4971963;28;20219;-74
2023/01/31 04:37:27;;;;;;;12.45;9.30;;;6.60;79.50;;;;;;4958444;28;20743;-74
2023/01/31 04:39:54;;;;;;;13.55;8.73;;;6.70;78.90;;;;;;4961473;28;20197;-73
2023/01/31 04:42:23;;;;;;;13.95;9.50;;;6.70;78.70;;;;;;4953923;28;20438;-74
2023/01/31 04:44:51;;;;;;;11.98;8.55;;;6.60;79.50;;;;;;4971663;28;20232;-74
2023/01/31 04:47:19;;;;;;;14.20;9.07;;;6.50;79.00;;;;;;4968464;28;20212;-74
2023/01/31 04:49:46;;;;;;;13.10;8.43;;;6.60;79.20;;;;;;4971042;28;20204;-74
2023/01/31 04:52:12;;;;;;;14.55;9.40;;;6.50;79.20;;;;;;4969938;28;20224;-73
2023/01/31 04:54:40;;;;;;;12.43;9.27;;;6.50;79.00;;;;;;4963383;28;20596;-74
2023/01/31 04:57:07;;;;;;;12.13;8.20;;;6.60;78.80;;;;;;4963562;28;20364;-73
2023/01/31 04:59:35;;;;;;;15.43;9.52;;;6.50;78.70;;;;;;4956653;28;20233;-73
2023/01/31 05:02:02;;;;;;;11.90;8.65;;;6.40;78.90;;;;;;4959446;28;20712;-74
2023/01/31 05:04:29;;;;;;;11.93;9.27;;;6.40;79.20;;;;;;4952596;28;20205;-74
2023/01/31 05:06:56;;;;;;;12.13;8.93;;;6.30;80.00;;;;;;4967171;28;20460;-74
2023/01/31 05:09:23;;;;;;;13.82;9.50;;;6.30;79.30;;;;;;4962850;28;20205;-74
2023/01/31 05:11:50;;;;;;;14.35;8.73;;;6.40;79.00;;;;;;4956717;28;20201;-74
2023/01/31 05:14:19;;;;;;;14.02;8.68;;;6.50;78.60;;;;;;4950522;28;20205;-74
2023/01/31 05:16:48;;;;;;;11.35;8.48;;;6.50;78.50;;;;;;4956061;28;20263;-74
2023/01/31 05:19:15;;;;;;;14.52;8.90;;;6.50;78.10;;;;;;4971499;28;20204;-74
2023/01/31 05:21:54;;;;;;;12.55;9.77;;;6.40;78.20;;;;;;4970221;28;20221;-73
2023/01/31 05:24:21;;;;;;;15.07;9.70;;;6.40;79.10;;;;;;4971779;28;20207;-73
2023/01/31 05:26:50;;;;;;;12.25;9.43;;;6.40;78.90;;;;;;4957553;28;20465;-74
2023/01/31 05:29:17;;;;;;;13.15;9.05;;;6.50;78.10;;;;;;4960675;28;20205;-74
2023/01/31 05:31:44;;;;;;;15.32;9.35;;;6.50;77.70;;;;;;4971541;28;20200;-74
2023/01/31 05:34:14;;;;;;;12.75;9.50;;;6.50;77.70;;;;;;4954463;28;20228;-74
2023/01/31 05:36:41;;;;;;;11.57;8.18;;;6.40;77.90;;;;;;4964997;28;20286;-74
2023/01/31 05:39:08;;;;;;;12.95;8.52;;;6.40;77.80;;;;;;4963031;28;20461;-74
2023/01/31 05:41:35;;;;;;;15.90;9.37;;;6.40;78.10;;;;;;4954926;28;20236;-74
2023/01/31 05:44:02;;;;;;;13.30;9.75;;;6.30;78.00;;;;;;4971063;28;20884;-74
2023/01/31 05:46:28;;;;;;;13.63;9.05;;;6.40;78.00;;;;;;4956810;28;20209;-74
2023/01/31 05:48:59;;;;;;;15.18;9.88;;;6.40;78.00;;;;;;4957440;28;20228;-73
2023/01/31 05:51:27;;;;;;;12.40;9.52;;;6.50;78.10;;;;;;4970353;28;20288;-74
2023/01/31 05:53:54;;;;;;;13.73;9.85;;;6.30;78.00;;;;;;4922871;28;20675;-73
2023/01/31 05:56:21;;;;;;;10.95;9.00;;;6.40;78.20;;;;;;4968703;28;20224;-74
2023/01/31 05:58:49;;;;;;;13.40;9.85;;;6.30;78.10;;;;;;4975218;28;20209;-74
2023/01/31 06:01:17;;;;;;;13.90;9.40;;;6.30;78.20;;;;;;4974842;28;20633;-73
2023/01/31 06:03:44;;;;;;;14.05;9.90;;;6.30;78.40;;;;;;4975019;28;20463;-74
2023/01/31 06:06:11;;;;;;;14.70;10.57;;;6.20;78.80;;;;;;4974859;28;20213;-73
2023/01/31 06:08:40;;;;;;;16.35;9.88;;;6.20;79.00;;;;;;4975229;28;20232;-74
2023/01/31 06:11:09;;;;;;;17.17;10.38;;;6.30;79.10;;;;;;4969600;28;20197;-73
2023/01/31 06:13:37;;;;;;;16.10;9.77;;;6.20;79.40;;;;;;4974487;28;20280;-73
2023/01/31 06:16:04;;;;;;;18.73;11.50;;;6.30;80.40;;;;;;4974424;28;20471;-73
2023/01/31 06:18:31;;;;;;;19.33;11.50;;;6.30;79.70;;;;;;4974789;28;20240;-74
2023/01/31 06:20:58;;;;;;;16.10;11.30;;;6.20;79.80;;;;;;4973273;28;20669;-72
2023/01/31 06:23:25;;;;;;;17.67;11.95;;;6.30;79.90;;;;;;4955593;28;20212;-72
2023/01/31 06:25:55;;;;;;;17.33;10.98;;;6.20;80.40;;;;;;4956121;28;20209;-73
2023/01/31 06:28:22;;;;;;;21.35;12.07;;;6.10;80.80;;;;;;4937358;29;20216;-73
2023/01/31 06:30:49;;;;;;;18.02;11.55;;;6.20;80.70;;;;;;4963255;28;20239;-73
2023/01/31 06:33:17;;;;;;;21.77;11.60;;;6.20;80.70;;;;;;4960874;28;20217;-75
2023/01/31 06:35:44;;;;;;;18.13;11.30;;;6.20;80.90;;;;;;4974020;28;20673;-75
2023/01/31 06:38:12;;;;;;;22.05;11.90;;;6.20;81.20;;;;;;4965882;28;20453;-73
2023/01/31 06:40:39;;;;;;;21.33;12.77;;;6.20;81.10;;;;;;4969951;28;20251;-74
2023/01/31 06:43:07;;;;;;;18.52;11.73;;;6.30;80.80;;;;;;4964456;28;20201;-73
2023/01/31 06:45:34;;;;;;;18.63;11.38;;;6.30;80.90;;;;;;4955497;28;20212;-75
2023/01/31 06:48:01;;;;;;;19.85;10.98;;;6.30;80.70;;;;;;4966343;28;20229;-74
2023/01/31 06:50:28;;;;;;;19.75;11.43;;;6.40;80.80;;;;;;4974675;28;20244;-75
2023/01/31 06:52:54;;;;;;;22.15;10.88;;;6.40;80.40;;;;;;4971002;28;20840;-76
2023/01/31 06:55:21;;;;;;;21.00;11.10;;;6.40;80.00;;;;;;4963205;28;20212;-76
2023/01/31 06:57:49;;;;;;;22.02;12.10;;;6.60;80.20;;;;;;4965529;28;20842;-74
2023/01/31 07:00:19;;;;;;;19.42;11.73;;;6.70;79.90;;;;;;4960923;28;20677;-73
2023/01/31 07:02:46;;;;;;;17.88;12.70;;;6.70;79.60;;;;;;4972633;28;20224;-75
2023/01/31 07:05:13;;;;;;;18.37;10.93;;;6.70;79.30;;;;;;4971379;28;20236;-74
2023/01/31 07:07:40;;;;;;;19.07;10.83;;;6.80;79.30;;;;;;4941202;29;20476;-79
2023/01/31 07:10:09;;;;;;;15.37;9.97;;;6.90;79.20;;;;;;4966557;28;20475;-78
2023/01/31 07:12:36;;;;;;;15.63;10.90;;;6.90;79.20;;;;;;4956098;28;20471;-77
2023/01/31 07:15:03;;;;;;;15.50;10.52;;;6.90;78.90;;;;;;4956896;28;20449;-75
2023/01/31 07:17:32;;;;;;;17.85;11.40;;;6.90;78.80;;;;;;4974018;28;20224;-76
2023/01/31 07:19:59;;;;;;;18.42;11.82;;;7.00;78.70;;;;;;4974874;28;20222;-77
2023/01/31 07:22:25;;;;;;;18.13;10.97;;;7.10;78.50;;;;;;4973237;28;20238;-76
2023/01/31 07:24:52;;;;;;;17.67;12.20;;;7.00;78.10;;;;;;4974996;28;20462;-77
2023/01/31 07:27:19;;;;;;;18.75;11.25;;;7.00;78.20;;;;;;4960121;28;20239;-74
2023/01/31 07:29:46;;;;;;;16.85;10.35;;;7.00;78.20;;;;;;4966499;28;20205;-75
2023/01/31 07:32:13;;;;;;;17.10;11.80;;;7.00;78.00;;;;;;4983043;28;20236;-77
2023/01/31 07:34:41;;;;;;;19.80;11.60;;;6.90;78.50;;;;;;4996670;28;20495;-78
2023/01/31 07:37:08;;;;;;;17.43;11.00;;;7.00;78.10;;;;;;4975586;28;20713;-72
2023/01/31 07:39:36;;;;;;;15.47;10.30;;;7.00;77.80;;;;;;4973218;28;20454;-73
2023/01/31 07:42:03;;;;;;;14.87;9.83;;;7.00;77.90;;;;;;4972081;28;20488;-70
2023/01/31 07:44:30;;;;;;;17.35;9.20;;;7.00;77.70;;;;;;4967990;28;20511;-73
2023/01/31 07:46:57;;;;;;;15.45;10.30;;;6.80;77.50;;;;;;4973803;28;20211;-73
2023/01/31 07:49:24;;;;;;;14.73;10.35;;;6.80;77.20;;;;;;4973680;28;20256;-73
2023/01/31 07:51:53;;;;;;;15.30;9.05;;;6.70;77.60;;;;;;4962894;28;20201;-73
2023/01/31 07:54:21;;;;;;;15.03;9.93;;;6.60;77.80;;;;;;4970156;28;20295;-73
2023/01/31 07:56:48;;;;;;;14.20;9.40;;;6.60;77.70;;;;;;4970121;28;20547;-73
2023/01/31 07:59:16;;;;;;;15.37;9.57;;;6.50;77.50;;;;;;4974088;28;20878;-72
2023/01/31 08:04:26;;;;;;;18.58;9.48;;;6.40;77.80;;;;;;4954622;29;20204;-72
2023/01/31 08:06:56;;;;;;;15.52;10.15;;;6.40;77.80;;;;;;4963492;28;20222;-73
2023/01/31 08:09:23;;;;;;;13.90;10.20;;;6.60;77.70;;;;;;4972383;28;20209;-72
2023/01/31 08:11:50;;;;;;;14.05;9.50;;;6.60;77.60;;;;;;4968061;28;20284;-72
2023/01/31 08:14:22;;;;;;;14.73;9.90;;;6.70;77.00;;;;;;4966479;28;20549;-72
2023/01/31 08:16:49;;;;;;;12.27;9.70;;;6.90;76.90;;;;;;4973152;28;20220;-71
2023/01/31 08:19:16;;;;;;;13.93;9.73;;;7.00;76.70;;;;;;4938637;28;20447;-73
2023/01/31 08:21:42;;;;;;;11.77;8.70;;;6.80;75.40;;;;;;4971224;28;20231;-73
2023/01/31 08:24:11;;;;;;;15.40;9.73;;;6.90;75.40;;;;;;4973138;28;20456;-73
2023/01/31 08:26:38;;;;;;;13.70;10.07;;;6.90;75.70;;;;;;4969040;28;20716;-73
2023/01/31 08:29:05;;;;;;;13.53;9.50;;;6.90;75.60;;;;;;4958574;28;20316;-72
2023/01/31 08:31:32;;;;;;;14.35;9.40;;;6.90;75.40;;;;;;4957660;28;20953;-72
2023/01/31 08:33:59;;;;;;;13.40;8.57;;;6.80;75.30;;;;;;4968049;28;20730;-72
2023/01/31 08:36:30;;;;;;;11.40;8.43;;;6.80;75.30;;;;;;4971990;28;20468;-72
2023/01/31 08:39:06;;;;;;;14.60;8.80;;;7.00;75.60;;;;;;5087684;27;21141;-72
2023/01/31 08:41:34;;;;;;;15.10;9.18;;;7.10;75.30;;;;;;5088537;28;20447;-71
2023/01/31 08:44:03;;;;;;;9.25;7.35;;;6.90;75.00;;;;;;5088768;28;20638;-71
2023/01/31 08:46:32;;;;;;;13.38;8.13;;;6.90;75.10;;;;;;5087865;28;20270;-71
2023/01/31 08:48:59;;;;;;;9.50;7.33;;;7.00;75.30;;;;;;5087949;28;20204;-71
2023/01/31 08:51:26;;;;;;;11.93;8.10;;;7.00;75.00;;;;;;5088741;28;20482;-71
2023/01/31 08:53:54;;;;;;;12.43;7.47;;;6.90;75.00;;;;;;5088115;28;20853;-71
2023/01/31 08:56:24;;;;;;;12.03;7.60;;;7.00;75.30;;;;;;5088302;28;20446;-71
2023/01/31 08:58:53;;;;;;;12.55;8.30;;;7.00;75.40;;;;;;5087721;28;20490;-71
2023/01/31 09:01:21;;;;;;;14.10;8.90;;;7.10;74.80;;;;;;5088349;28;20212;-71
2023/01/31 09:03:55;;;;;;;11.13;8.05;;;7.00;74.70;;;;;;5088117;28;20200;-72
2023/01/31 09:06:24;;;;;;;11.45;7.60;;;7.00;74.90;;;;;;5077799;28;20208;-71
2023/01/31 09:08:51;;;;;;;12.00;8.00;;;7.10;75.10;;;;;;5076606;28;20220;-72
2023/01/31 09:11:18;;;;;;;11.70;7.77;;;7.20;74.80;;;;;;5088199;28;20894;-71
2023/01/31 09:13:49;;;;;;;11.55;7.25;;;7.30;74.70;;;;;;5087910;28;20451;-73
2023/01/31 09:16:16;;;;;;;11.77;8.47;;;7.20;74.80;;;;;;5087716;28;20213;-71
2023/01/31 09:18:43;;;;;;;10.63;8.40;;;7.30;74.10;;;;;;5087513;28;20835;-71
2023/01/31 09:21:12;;;;;;;13.47;7.90;;;7.20;74.20;;;;;;5088191;28;20456;-71
2023/01/31 09:23:40;;;;;;;10.80;7.47;;;7.10;74.00;;;;;;5087674;28;20558;-72
2023/01/31 09:26:07;;;;;;;11.33;7.97;;;7.00;74.30;;;;;;5087994;28;20975;-73
2023/01/31 09:28:33;;;;;;;11.03;7.60;;;6.90;75.00;;;;;;5087884;28;20443;-73
2023/01/31 09:31:07;;;;;;;12.73;7.77;;;6.80;75.50;;;;;;5067313;22;20892;-71
2023/01/31 09:33:35;;;;;;;15.90;8.38;;;6.80;75.60;;;;;;5068709;28;20542;-71
2023/01/31 09:36:03;;;;;;;12.87;8.07;;;6.90;75.50;;;;;;5065490;28;20202;-72
2023/01/31 09:38:30;;;;;;;15.50;8.13;;;7.10;75.20;;;;;;5066748;28;20567;-72
2023/01/31 09:41:00;;;;;;;9.95;7.60;;;7.00;74.70;;;;;;5066412;28;20702;-72
2023/01/31 09:43:31;;;;;;;11.67;7.33;;;6.90;75.00;;;;;;5067063;28;20233;-72
2023/01/31 09:46:02;;;;;;;10.27;7.83;;;6.70;75.50;;;;;;5065516;28;20455;-73
2023/01/31 09:48:35;;;;;;;11.53;9.13;;;6.90;76.00;;;;;;5044944;28;20450;-71
2023/01/31 09:51:03;;;;;;;10.38;7.53;;;7.00;75.60;;;;;;5045604;28;20455;-73
2023/01/31 09:53:34;;;;;;;15.40;7.53;;;7.00;75.20;;;;;;5040409;28;20217;-71
2023/01/31 09:56:15;;;;;;;19.67;8.77;;;7.10;75.10;;;;;;5039545;28;20500;-72
2023/01/31 09:58:51;;;;;;;13.80;8.43;;;7.30;75.00;;;;;;5050693;28;20488;-73
2023/01/31 10:01:23;;;;;;;12.43;7.77;;;7.30;74.70;;;;;;5044977;28;20547;-73
2023/01/31 10:04:14;;;;;;;12.45;8.48;;;7.40;74.60;;;;;;5036189;28;20459;-73
2023/01/31 10:06:48;;;;;;;10.77;8.00;;;7.40;73.70;;;;;;5041379;28;20226;-73
2023/01/31 10:09:22;;;;;;;13.53;7.87;;;7.60;73.90;;;;;;5033383;28;20556;-73
2023/01/31 10:11:54;;;;;;;10.77;7.80;;;7.90;73.20;;;;;;5033440;28;20554;-73
2023/01/31 10:14:29;;;;;;;13.80;7.50;;;8.10;72.20;;;;;;5037280;28;20557;-72
2023/01/31 10:17:02;;;;;;;11.70;7.33;;;8.20;71.30;;;;;;5044469;28;20452;-73
2023/01/31 10:19:36;;;;;;;11.60;7.43;;;8.10;71.30;;;;;;5032941;28;20591;-71
2023/01/31 10:22:12;;;;;;;11.97;8.07;;;8.00;71.30;;;;;;5033467;28;20548;-72
2023/01/31 10:24:43;;;;;;;10.90;7.27;;;8.10;71.90;;;;;;5034726;28;20459;-71
2023/01/31 10:27:16;;;;;;;10.20;6.83;;;8.40;71.50;;;;;;5033999;28;20485;-73
2023/01/31 10:29:49;;;;;;;11.90;6.60;;;8.70;70.60;;;;;;5034313;28;20477;-72
2023/01/31 10:32:21;;;;;;;15.00;7.97;;;8.80;69.70;;;;;;5034021;28;20479;-73
2023/01/31 10:34:53;;;;;;;8.63;6.43;;;8.80;69.20;;;;;;5034122;28;20457;-73
2023/01/31 10:37:29;;;;;;;10.47;6.73;;;8.80;69.40;;;;;;5038200;28;20489;-72
2023/01/31 10:40:01;;;;;;;12.27;7.23;;;8.80;68.50;;;;;;5042516;28;20508;-73
2023/01/31 10:42:32;;;;;;;8.70;7.03;;;8.70;68.80;;;;;;5022084;28;20537;-72
2023/01/31 10:45:02;;;;;;;11.30;7.40;;;8.50;68.90;;;;;;5014454;28;20450;-74
2023/01/31 10:47:33;;;;;;;11.67;7.13;;;8.50;69.30;;;;;;5042823;28;20535;-73
2023/01/31 10:50:11;;;;;;;10.30;7.17;;;8.70;68.90;;;;;;5032048;28;20465;-73
2023/01/31 10:52:53;;;;;;;11.07;6.90;;;8.80;68.80;;;;;;5031891;28;20559;-72
2023/01/31 10:55:42;;;;;;;14.13;7.23;;;8.90;68.70;;;;;;4980560;28;20990;-73
2023/01/31 10:58:14;;;;;;;10.77;7.10;;;8.80;67.70;;;;;;5031579;28;20503;-72
2023/01/31 11:00:41;;;;;;;9.63;7.17;;;8.70;68.50;;;;;;5030336;28;20674;-73
2023/01/31 11:03:11;;;;;;;9.43;6.57;;;8.80;68.10;;;;;;5031467;28;20559;-74
2023/01/31 11:05:46;;;;;;;7.90;6.60;;;8.70;68.50;;;;;;5037715;28;20450;-74
2023/01/31 11:08:29;;;;;;;9.57;6.20;;;8.70;68.10;;;;;;5027779;28;20443;-73
2023/01/31 11:10:58;;;;;;;7.93;6.17;;;8.80;68.20;;;;;;5045879;28;20476;-73
2023/01/31 11:13:25;;;;;;;9.00;5.90;;;8.90;68.00;;;;;;5036139;28;20450;-73
2023/01/31 11:15:54;;;;;;;9.23;6.13;;;9.10;67.80;;;;;;5036707;28;20552;-73
2023/01/31 11:18:29;;;;;;;10.70;6.03;;;8.80;67.40;;;;;;5032244;28;20487;-73
2023/01/31 11:20:59;;;;;;;9.87;6.10;;;9.00;67.60;;;;;;5032240;28;20800;-74
2023/01/31 11:23:28;;;;;;;7.13;5.43;;;9.10;67.10;;;;;;5031461;28;20483;-72
2023/01/31 11:25:56;;;;;;;9.17;5.93;;;9.10;67.10;;;;;;5031571;28;20464;-73
2023/01/31 11:28:28;;;;;;;8.57;6.10;;;9.10;66.30;;;;;;5032489;28;20448;-73
2023/01/31 11:30:57;;;;;;;7.03;5.20;;;8.70;66.40;;;;;;5029931;28;20492;-73
2023/01/31 11:33:55;;;;;;;11.47;5.73;;;8.50;67.10;;;;;;5033752;28;20465;-73
2023/01/31 11:36:25;;;;;;;9.33;5.23;;;8.50;67.70;;;;;;5034679;28;20476;-72
2023/01/31 11:38:53;;;;;;;9.40;5.77;;;8.40;67.80;;;;;;5024996;28;20488;-73
2023/01/31 11:41:34;;;;;;;8.17;5.80;;;8.50;67.30;;;;;;5030532;28;20457;-73
2023/01/31 11:44:10;;;;;;;8.00;6.13;;;8.40;67.20;;;;;;5011434;28;20556;-74
2023/01/31 11:46:48;;;;;;;8.50;5.60;;;8.20;67.30;;;;;;5014708;28;20960;-71
2023/01/31 11:49:22;;;;;;;13.70;6.27;;;8.30;68.70;;;;;;5031598;28;20865;-72
2023/01/31 11:51:51;;;;;;;9.50;6.43;;;8.60;68.00;;;;;;5034351;28;20456;-73
2023/01/31 11:54:23;;;;;;;9.33;6.13;;;8.40;67.80;;;;;;5051866;28;20517;-73
2023/01/31 11:56:50;;;;;;;9.70;5.83;;;8.50;67.60;;;;;;5049841;28;20480;-73
2023/01/31 11:59:21;;;;;;;10.53;5.93;;;8.50;68.10;;;;;;5057396;28;20488;-73
2023/01/31 12:01:51;;;;;;;9.97;6.27;;;8.50;68.80;;;;;;5053132;28;20449;-72
2023/01/31 12:04:23;;;;;;;10.50;6.30;;;8.60;68.00;;;;;;5040867;28;20516;-73
2023/01/31 12:07:00;;;;;;;10.23;5.97;;;8.70;67.90;;;;;;5057389;28;20429;-73
2023/01/31 12:09:29;;;;;;;8.30;5.37;;;8.70;68.00;;;;;;5050550;28;20523;-74
2023/01/31 12:11:58;;;;;;;9.80;5.60;;;8.70;67.40;;;;;;5035339;28;20449;-74
2023/01/31 12:14:39;;;;;;;8.10;6.70;;;8.60;67.50;;;;;;5022395;28;20449;-74
2023/01/31 12:17:12;;;;;;;9.80;6.70;;;8.70;67.50;;;;;;5030922;28;20449;-73
2023/01/31 12:19:53;;;;;;;7.70;5.17;;;8.60;67.60;;;;;;5031463;28;20493;-73
2023/01/31 12:22:26;;;;;;;8.80;6.20;;;8.60;67.20;;;;;;5036743;28;20671;-73
2023/01/31 12:25:03;;;;;;;7.27;5.63;;;8.60;67.60;;;;;;5031838;28;20458;-73
2023/01/31 12:27:45;;;;;;;9.30;5.40;;;8.50;67.60;;;;;;5041579;28;20944;-73
2023/01/31 12:30:24;;;;;;;7.50;5.63;;;8.60;68.50;;;;;;5043746;28;20490;-73
2023/01/31 12:33:08;;;;;;;6.10;5.20;;;8.50;67.60;;;;;;5016877;28;20448;-73
2023/01/31 12:35:56;;;;;;;10.93;5.43;;;8.50;67.80;;;;;;5049813;28;20476;-74
2023/01/31 12:38:41;;;;;;;6.53;5.07;;;8.60;67.60;;;;;;5048362;28;20494;-74
2023/01/31 12:41:23;;;;;;;8.40;5.23;;;8.60;67.00;;;;;;5049640;28;20538;-74
2023/01/31 12:44:08;;;;;;;9.20;4.83;;;8.50;66.70;;;;;;5039386;28;20802;-74
2023/01/31 12:46:46;;;;;;;7.37;5.27;;;8.50;67.10;;;;;;5031689;28;20449;-74
2023/01/31 12:49:58;;;;;;;8.67;4.70;;;8.60;67.00;;;;;;5030050;28;20479;-74
2023/01/31 12:52:34;;;;;;;7.67;5.40;;;8.70;66.70;;;;;;4977791;28;20467;-74
2023/01/31 12:55:19;;;;;;;9.00;5.23;;;8.80;66.40;;;;;;4936022;28;20515;-73
2023/01/31 12:57:55;;;;;;;10.87;5.43;;;8.70;65.80;;;;;;5023464;28;20463;-73
2023/01/31 13:00:32;;;;;;;6.90;5.00;;;8.40;66.10;;;;;;5046613;28;20753;-73
2023/01/31 13:03:37;;;;;;;11.87;5.50;;;8.30;66.70;;;;;;5048417;28;21068;-73
2023/01/31 13:06:14;;;;;;;9.33;5.57;;;8.40;67.10;;;;;;5041260;28;20998;-74
2023/01/31 13:08:43;;;;;;;7.47;5.07;;;8.50;66.80;;;;;;5042685;28;20927;-72
2023/01/31 13:11:15;;;;;;;8.50;4.67;;;8.40;66.50;;;;;;5030522;28;20453;-71